Terminal Aerodrome Forecast
Issued by NWS Louisville, KY

Home | Current Version | Previous Version | Text Only | Print | Product List | Glossary On
Versions: 1 2 3 4 5 6 7 8 9 10 11 12 13 14 15 16
000
FTUS43 KLMK 151700
TAFLEX
TAF
KLEX 151734Z 1518/1618 07012KT P6SM BKN021
     FM160100 08012KT P6SM VCSH BKN015
     FM160800 14010KT P6SM BKN025=

USA.gov is the U.S. government's official web portal to all federal, state and local government web resources and services.